Time;durP1;ratioP1;P1;durP2;ratioP2;P2;SDS_P1;SDS_P2;PMS_P1;PMS_P2;Temp;Humidity;BMP_temperature;BMP_pressure;BME280_temperature;BME280_humidity;BME280_pressure;Samples;Min_cycle;Max_cycle;Signal;HPM_P1;HPM_P2
2023/05/12 00:03:23;;;;;;;4.63;3.53;;;7.30;99.90;;;;;;8381654;28;20330;-69
2023/05/12 00:07:27;;;;;;;3.80;3.40;;;7.20;99.90;;;;;;8381239;28;20189;-69
2023/05/12 00:11:28;;;;;;;4.83;3.40;;;7.10;99.90;;;;;;8382257;28;20180;-68
2023/05/12 00:15:29;;;;;;;5.90;4.07;;;7.00;99.90;;;;;;8397870;28;20203;-68
2023/05/12 00:19:30;;;;;;;4.67;3.60;;;6.90;1.00;;;;;;8388920;28;20257;-69
2023/05/12 00:23:43;;;;;;;5.27;3.97;;;6.70;1.00;;;;;;8385179;28;20180;-71
2023/05/12 00:27:47;;;;;;;6.00;4.20;;;6.70;1.00;;;;;;8400463;28;20201;-69
2023/05/12 00:31:48;;;;;;;7.20;4.47;;;6.60;1.00;;;;;;8396610;28;20223;-67
2023/05/12 00:35:49;;;;;;;15.93;7.57;;;6.60;1.00;;;;;;8397324;28;20189;-69
2023/05/12 00:39:50;;;;;;;9.57;5.80;;;6.50;1.00;;;;;;8385540;28;20267;-69
2023/05/12 00:43:51;;;;;;;9.90;4.87;;;6.50;1.00;;;;;;8382106;28;20199;-68
2023/05/12 00:47:52;;;;;;;7.07;4.47;;;6.50;13.60;;;;;;8384420;28;20215;-68
2023/05/12 00:51:54;;;;;;;3.93;3.37;;;6.30;12.60;;;;;;8395125;28;20192;-69
2023/05/12 00:55:56;;;;;;;4.57;3.70;;;6.30;28.40;;;;;;8390309;28;20252;-69
2023/05/12 00:59:57;;;;;;;5.37;3.90;;;6.20;85.70;;;;;;8397163;28;20221;-70
2023/05/12 01:03:58;;;;;;;5.47;3.53;;;6.10;99.90;;;;;;8397068;28;20293;-68
2023/05/12 01:08:00;;;;;;;5.03;3.90;;;6.00;99.90;;;;;;8384129;28;20290;-69
2023/05/12 01:12:01;;;;;;;5.07;3.50;;;6.00;99.90;;;;;;8378995;28;20199;-68
2023/05/12 01:16:03;;;;;;;4.87;3.93;;;5.90;99.90;;;;;;8388147;28;20198;-69
2023/05/12 01:20:07;;;;;;;5.20;3.40;;;5.80;99.90;;;;;;8383901;28;20216;-69
2023/05/12 01:24:11;;;;;;;6.10;4.53;;;5.70;99.90;;;;;;8397432;28;20323;-68
2023/05/12 01:28:12;;;;;;;5.90;3.83;;;5.70;99.90;;;;;;8380394;28;20230;-69
2023/05/12 01:32:14;;;;;;;5.40;4.57;;;5.60;99.90;;;;;;8393198;28;20195;-69
2023/05/12 01:36:15;;;;;;;4.97;4.03;;;5.60;99.90;;;;;;8397272;28;20195;-70
2023/05/12 01:40:16;;;;;;;4.90;3.97;;;5.60;99.90;;;;;;8376125;28;20218;-69
2023/05/12 01:44:19;;;;;;;6.77;4.17;;;5.50;1.00;;;;;;8388544;28;20200;-69
2023/05/12 01:48:20;;;;;;;5.73;4.67;;;5.40;1.00;;;;;;8381877;28;20205;-69
2023/05/12 01:52:21;;;;;;;5.57;4.17;;;5.40;1.00;;;;;;8390067;28;20380;-68
2023/05/12 01:56:22;;;;;;;7.37;5.07;;;5.40;1.00;;;;;;8384537;28;20200;-68
2023/05/12 02:00:23;;;;;;;7.07;5.13;;;5.30;64.50;;;;;;8382573;28;20210;-69
2023/05/12 02:04:24;;;;;;;6.10;5.00;;;5.30;20.40;;;;;;8381603;28;20221;-68
2023/05/12 02:08:25;;;;;;;4.60;4.07;;;5.20;9.30;;;;;;8387211;28;20200;-69
2023/05/12 02:12:29;;;;;;;5.93;4.23;;;5.20;23.80;;;;;;8381915;28;20219;-69
2023/05/12 02:16:30;;;;;;;5.77;4.63;;;5.10;99.90;;;;;;8387436;28;20190;-71
2023/05/12 02:20:31;;;;;;;5.53;4.13;;;5.00;99.90;;;;;;8389431;28;20188;-71
2023/05/12 02:24:32;;;;;;;5.77;4.47;;;4.90;99.90;;;;;;8383722;28;20194;-69
2023/05/12 02:28:33;;;;;;;7.73;5.80;;;4.90;99.90;;;;;;8386564;28;20243;-69
2023/05/12 02:32:34;;;;;;;8.10;5.57;;;4.90;99.90;;;;;;8381587;28;20258;-69
2023/05/12 02:36:35;;;;;;;7.73;5.10;;;4.80;99.90;;;;;;8385159;28;20210;-69
2023/05/12 02:40:40;;;;;;;6.07;4.93;;;4.80;99.90;;;;;;8379626;28;20197;-69
2023/05/12 02:44:50;;;;;;;7.20;4.87;;;4.70;99.90;;;;;;8381208;28;20183;-69
2023/05/12 02:48:51;;;;;;;5.33;4.17;;;4.60;1.00;;;;;;8387694;28;20218;-70
2023/05/12 02:52:52;;;;;;;6.73;4.37;;;4.50;1.00;;;;;;8399596;28;20188;-69
2023/05/12 02:56:55;;;;;;;5.67;4.30;;;4.40;1.00;;;;;;8398286;28;20191;-69
2023/05/12 03:01:05;;;;;;;4.33;3.93;;;4.30;99.90;;;;;;8395554;28;20193;-72
2023/05/12 03:05:07;;;;;;;6.00;4.83;;;4.30;99.90;;;;;;8399240;28;20216;-69
2023/05/12 03:09:08;;;;;;;6.97;5.10;;;4.30;1.00;;;;;;8398812;28;20212;-69
2023/05/12 03:13:09;;;;;;;6.93;4.97;;;4.30;1.00;;;;;;8375960;28;20208;-69
2023/05/12 03:17:17;;;;;;;5.97;4.83;;;4.30;93.90;;;;;;8380141;28;20195;-68
2023/05/12 03:21:18;;;;;;;6.53;4.83;;;4.40;99.90;;;;;;8400332;28;20326;-68
2023/05/12 03:25:22;;;;;;;6.37;5.13;;;4.40;99.90;;;;;;8383730;28;20195;-71
2023/05/12 03:29:30;;;;;;;6.10;5.33;;;4.40;99.90;;;;;;8399533;28;20212;-70
2023/05/12 03:33:34;;;;;;;5.13;4.53;;;4.50;99.90;;;;;;8394458;28;20178;-70
2023/05/12 03:37:35;;;;;;;6.47;4.90;;;4.60;99.90;;;;;;8400998;28;20193;-71
2023/05/12 03:41:37;;;;;;;6.83;5.37;;;4.80;99.90;;;;;;8378610;28;20196;-71
2023/05/12 03:45:37;;;;;;;7.50;5.07;;;4.90;52.70;;;;;;8382301;28;20193;-70
2023/05/12 03:49:41;;;;;;;7.57;5.67;;;5.00;1.00;;;;;;8385836;28;20212;-70
2023/05/12 03:53:45;;;;;;;6.67;5.23;;;5.20;1.00;;;;;;8394713;28;20185;-71
2023/05/12 03:57:48;;;;;;;7.40;5.37;;;5.90;1.00;;;;;;8377677;28;20195;-68
2023/05/12 04:01:49;;;;;;;7.73;5.23;;;7.20;1.00;;;;;;8378866;28;20246;-69
2023/05/12 04:05:56;;;;;;;6.93;5.10;;;8.40;99.90;;;;;;8378792;28;20257;-70
2023/05/12 04:09:57;;;;;;;8.10;4.47;;;9.40;99.90;;;;;;8382519;28;20265;-71
2023/05/12 04:13:58;;;;;;;7.70;4.93;;;10.40;1.00;;;;;;8394883;28;20180;-70
2023/05/12 04:17:59;;;;;;;8.47;5.67;;;11.20;1.00;;;;;;8397987;28;20191;-70
2023/05/12 04:22:00;;;;;;;5.50;4.60;;;11.90;99.90;;;;;;8382647;28;20302;-70
2023/05/12 04:26:05;;;;;;;7.00;4.60;;;12.60;99.90;;;;;;8379529;28;20196;-70
2023/05/12 04:30:06;;;;;;;5.20;4.37;;;13.00;99.90;;;;;;8381399;28;20218;-68
2023/05/12 04:34:07;;;;;;;7.13;4.83;;;13.40;99.90;;;;;;8394408;28;20235;-70
2023/05/12 04:38:08;;;;;;;5.07;4.13;;;13.80;92.20;;;;;;8396433;28;20177;-68
2023/05/12 04:42:09;;;;;;;6.37;4.40;;;14.10;67.50;;;;;;8378934;28;20220;-69
2023/05/12 04:46:10;;;;;;;4.50;3.63;;;14.40;45.30;;;;;;8396429;28;20189;-74
2023/05/12 04:50:11;;;;;;;9.30;5.90;;;14.50;35.50;;;;;;8383137;28;20216;-69
2023/05/12 04:54:12;;;;;;;15.03;7.47;;;14.50;28.90;;;;;;8378468;28;20267;-68
2023/05/12 04:58:13;;;;;;;7.97;5.63;;;14.60;16.30;;;;;;8396937;28;20189;-68
2023/05/12 05:02:15;;;;;;;11.23;6.97;;;14.60;3.70;;;;;;8396658;28;20211;-67
2023/05/12 05:06:16;;;;;;;24.37;12.33;;;14.10;1.00;;;;;;8378145;28;20208;-67
2023/05/12 05:10:17;;;;;;;11.80;5.80;;;13.60;2.20;;;;;;8382984;28;20213;-69
2023/05/12 05:14:18;;;;;;;9.27;5.20;;;13.20;8.80;;;;;;8383367;28;20199;-69
2023/05/12 05:18:20;;;;;;;11.13;6.33;;;12.90;18.20;;;;;;8400122;28;20196;-69
2023/05/12 05:22:21;;;;;;;7.07;4.97;;;12.70;31.20;;;;;;8403937;28;20181;-68
2023/05/12 05:26:24;;;;;;;7.73;5.40;;;12.60;37.10;;;;;;8393618;28;20180;-69
2023/05/12 05:30:25;;;;;;;5.77;4.53;;;12.60;39.80;;;;;;8405115;28;20207;-70
2023/05/12 05:34:26;;;;;;;8.03;5.90;;;12.70;43.90;;;;;;8389646;28;20183;-68
2023/05/12 05:38:27;;;;;;;10.03;5.73;;;12.70;23.70;;;;;;8387927;28;20192;-69
2023/05/12 05:42:28;;;;;;;5.47;4.10;;;12.70;20.90;;;;;;8365257;28;20199;-68
2023/05/12 05:46:29;;;;;;;13.07;5.03;;;12.80;20.20;;;;;;8392737;28;20284;-68
2023/05/12 05:50:30;;;;;;;7.17;4.87;;;12.90;17.40;;;;;;8402916;28;20205;-69
2023/05/12 05:54:31;;;;;;;5.40;4.10;;;13.00;16.70;;;;;;8383296;28;20183;-66
2023/05/12 05:58:32;;;;;;;11.20;4.03;;;13.10;9.60;;;;;;8383780;28;20283;-68
2023/05/12 06:02:33;;;;;;;5.70;4.37;;;13.20;4.90;;;;;;8400516;28;20279;-68
2023/05/12 06:06:34;;;;;;;9.83;4.40;;;13.30;5.60;;;;;;8381904;28;20287;-66
2023/05/12 06:10:35;;;;;;;5.93;4.60;;;13.50;1.00;;;;;;8382338;28;20213;-69
2023/05/12 06:14:36;;;;;;;6.60;4.20;;;13.70;1.00;;;;;;8381293;28;20192;-69
2023/05/12 06:18:37;;;;;;;6.83;3.90;;;13.80;1.00;;;;;;8383835;28;20181;-66
2023/05/12 06:22:41;;;;;;;8.03;4.33;;;13.90;1.00;;;;;;8389765;28;20187;-67
2023/05/12 06:26:41;;;;;;;8.00;4.50;;;14.00;1.00;;;;;;8400116;28;20185;-68
2023/05/12 06:30:43;;;;;;;6.77;4.33;;;14.20;1.00;;;;;;8384187;28;20192;-68
2023/05/12 06:34:44;;;;;;;9.97;5.30;;;14.40;1.00;;;;;;8388746;28;20193;-67
2023/05/12 06:38:49;;;;;;;6.50;4.30;;;14.50;1.00;;;;;;8387166;28;20215;-66
2023/05/12 06:42:50;;;;;;;7.03;4.00;;;14.60;1.00;;;;;;8385786;28;20228;-66
2023/05/12 06:46:52;;;;;;;5.47;3.50;;;14.60;1.00;;;;;;8380549;28;20189;-66
2023/05/12 06:50:53;;;;;;;7.50;4.90;;;14.60;1.00;;;;;;8400930;28;20263;-65
2023/05/12 06:54:54;;;;;;;7.17;4.17;;;14.80;1.00;;;;;;8379581;28;20185;-67
2023/05/12 06:59:02;;;;;;;8.90;3.77;;;14.90;1.00;;;;;;8399918;28;20243;-67
2023/05/12 07:03:03;;;;;;;7.63;3.87;;;15.00;1.00;;;;;;8380123;28;20201;-67
2023/05/12 07:07:07;;;;;;;5.03;3.87;;;15.10;1.00;;;;;;8386588;28;20238;-67
2023/05/12 07:11:19;;;;;;;5.97;4.27;;;15.30;1.00;;;;;;8386081;28;20185;-67
2023/05/12 07:15:20;;;;;;;9.00;5.07;;;15.50;1.00;;;;;;8379991;28;20213;-66
2023/05/12 07:19:21;;;;;;;8.20;4.47;;;15.50;1.00;;;;;;8378101;28;20208;-67
2023/05/12 07:23:22;;;;;;;8.20;4.57;;;15.50;1.00;;;;;;8386622;28;20192;-68
2023/05/12 07:27:23;;;;;;;9.73;4.30;;;15.60;1.00;;;;;;8396936;28;20240;-66
2023/05/12 07:31:24;;;;;;;9.33;4.50;;;15.70;1.00;;;;;;8402679;28;20181;-67
2023/05/12 07:35:25;;;;;;;5.03;4.27;;;15.90;1.00;;;;;;8384153;28;20184;-68
2023/05/12 07:39:26;;;;;;;7.57;4.33;;;16.00;1.00;;;;;;8376999;28;20192;-67
2023/05/12 07:43:27;;;;;;;11.27;4.40;;;16.00;1.00;;;;;;8384497;28;20227;-67
2023/05/12 07:47:28;;;;;;;8.33;4.60;;;16.20;1.00;;;;;;8398138;28;20227;-67
2023/05/12 07:51:29;;;;;;;7.30;4.30;;;16.30;1.00;;;;;;8366535;28;20189;-68
2023/05/12 07:55:34;;;;;;;7.27;4.40;;;16.30;1.00;;;;;;8386321;28;20180;-69
2023/05/12 07:59:35;;;;;;;4.47;3.90;;;16.40;1.00;;;;;;8387475;28;20188;-71
2023/05/12 08:03:36;;;;;;;6.43;4.50;;;16.50;1.00;;;;;;8384033;28;20258;-69
2023/05/12 08:07:38;;;;;;;15.33;5.23;;;16.60;1.00;;;;;;8400225;28;20216;-67
2023/05/12 08:11:39;;;;;;;5.83;4.10;;;16.70;1.00;;;;;;8382851;28;20180;-69
2023/05/12 08:15:48;;;;;;;10.10;4.80;;;16.90;1.00;;;;;;8396849;28;20180;-67
2023/05/12 08:19:49;;;;;;;8.23;4.30;;;17.00;1.00;;;;;;8384977;28;20189;-66
2023/05/12 08:23:50;;;;;;;7.87;4.50;;;17.20;1.00;;;;;;8386503;28;20184;-68
2023/05/12 08:27:54;;;;;;;8.23;4.50;;;17.40;1.00;;;;;;8379295;28;20300;-68
2023/05/12 08:31:57;;;;;;;8.87;4.30;;;17.50;1.00;;;;;;8397532;28;20288;-68
2023/05/12 08:35:58;;;;;;;8.10;4.50;;;17.60;1.00;;;;;;8398549;28;20209;-69
2023/05/12 08:40:00;;;;;;;6.63;4.17;;;17.80;1.00;;;;;;8398842;28;20188;-67
2023/05/12 08:44:02;;;;;;;8.13;4.13;;;18.00;1.00;;;;;;8369588;28;20228;-67
2023/05/12 08:48:10;;;;;;;6.73;3.80;;;18.10;1.00;;;;;;8386339;28;20216;-68
2023/05/12 08:52:13;;;;;;;5.80;4.30;;;18.20;1.00;;;;;;8383531;28;20185;-67
2023/05/12 08:56:21;;;;;;;7.37;4.80;;;18.30;1.00;;;;;;8393125;28;20177;-68
2023/05/12 09:00:24;;;;;;;7.77;4.10;;;18.40;1.00;;;;;;8384433;28;20188;-68
2023/05/12 09:04:25;;;;;;;7.90;4.10;;;18.50;1.00;;;;;;8390705;28;20232;-67
2023/05/12 09:08:29;;;;;;;5.80;3.97;;;18.70;1.00;;;;;;8402835;28;20211;-67
2023/05/12 09:12:33;;;;;;;8.67;3.97;;;18.80;1.00;;;;;;8368478;28;20189;-66
2023/05/12 09:16:47;;;;;;;5.23;3.70;;;18.90;1.00;;;;;;8382587;28;20192;-67
2023/05/12 09:21:01;;;;;;;7.13;3.90;;;19.00;1.00;;;;;;8383516;28;20188;-68
2023/05/12 09:25:29;;;;;;;9.23;3.83;;;19.20;1.00;;;;;;8391646;28;20232;-67
2023/05/12 09:29:32;;;;;;;5.23;2.97;;;19.40;1.00;;;;;;8382761;28;20228;-67
2023/05/12 09:33:35;;;;;;;3.57;3.07;;;19.50;1.00;;;;;;8387487;28;20266;-66
2023/05/12 09:37:37;;;;;;;5.47;2.70;;;19.50;1.00;;;;;;8389946;28;20223;-65
2023/05/12 09:41:44;;;;;;;4.90;2.70;;;19.60;1.00;;;;;;8381902;28;20211;-66
2023/05/12 09:45:49;;;;;;;6.00;2.33;;;19.70;1.00;;;;;;8402037;28;20192;-65
2023/05/12 09:49:51;;;;;;;5.97;2.93;;;19.90;1.00;;;;;;8397197;28;20209;-67
2023/05/12 09:53:52;;;;;;;5.40;2.63;;;20.10;1.00;;;;;;8405227;28;20177;-65
2023/05/12 09:57:55;;;;;;;5.57;3.07;;;20.20;1.00;;;;;;8386221;28;20189;-66
2023/05/12 10:01:59;;;;;;;3.13;2.40;;;20.30;1.00;;;;;;8381288;28;20185;-67
2023/05/12 10:06:07;;;;;;;3.87;2.57;;;20.40;1.00;;;;;;8383502;28;20329;-66
2023/05/12 10:10:13;;;;;;;3.30;2.60;;;20.50;1.00;;;;;;8385238;28;20216;-65
2023/05/12 10:14:15;;;;;;;12.90;3.20;;;20.60;1.00;;;;;;8390144;28;20192;-64
2023/05/12 10:18:20;;;;;;;7.33;2.70;;;20.70;1.00;;;;;;8403412;28;20196;-64
2023/05/12 10:22:21;;;;;;;9.03;2.83;;;20.80;1.00;;;;;;8381412;28;20192;-64
2023/05/12 10:26:22;;;;;;;6.63;2.63;;;20.80;1.00;;;;;;8397383;28;20270;-67
2023/05/12 10:30:24;;;;;;;4.20;2.30;;;21.00;1.00;;;;;;8387659;28;20221;-66
2023/05/12 10:34:36;;;;;;;6.20;3.00;;;21.10;1.00;;;;;;8381408;28;20219;-66
2023/05/12 10:38:40;;;;;;;4.57;2.77;;;21.30;1.00;;;;;;8398567;28;20199;-68
2023/05/12 10:42:42;;;;;;;8.53;2.80;;;21.50;1.00;;;;;;8382559;28;20295;-68
2023/05/12 10:46:43;;;;;;;3.77;2.27;;;21.60;1.00;;;;;;8403633;28;20220;-67
2023/05/12 10:51:07;;;;;;;3.07;2.37;;;21.60;1.00;;;;;;8402864;28;20212;-67
2023/05/12 10:55:13;;;;;;;3.03;1.80;;;21.70;1.00;;;;;;8401070;28;20231;-67
2023/05/12 10:59:19;;;;;;;4.63;1.87;;;21.80;1.00;;;;;;8398433;28;20188;-67
2023/05/12 11:03:25;;;;;;;5.47;2.20;;;21.90;1.00;;;;;;8400587;28;20221;-69
2023/05/12 11:07:36;;;;;;;3.80;1.60;;;21.90;1.00;;;;;;8379175;28;20216;-67
2023/05/12 11:11:37;;;;;;;2.60;1.90;;;21.90;1.00;;;;;;8398548;28;20212;-67
2023/05/12 11:15:38;;;;;;;3.47;2.10;;;22.00;1.00;;;;;;8381822;28;20189;-67
2023/05/12 11:19:48;;;;;;;3.03;2.20;;;22.20;1.00;;;;;;8389447;28;20188;-67
2023/05/12 11:23:50;;;;;;;2.93;1.60;;;22.40;1.00;;;;;;8383363;28;20192;-68
2023/05/12 11:27:51;;;;;;;3.83;1.63;;;22.50;1.00;;;;;;8380793;28;20208;-66
2023/05/12 11:31:53;;;;;;;2.10;1.43;;;22.60;1.00;;;;;;8387026;28;20185;-66
2023/05/12 11:35:53;;;;;;;3.60;1.20;;;22.60;1.00;;;;;;8399276;28;20192;-64
2023/05/12 11:39:54;;;;;;;3.37;1.37;;;22.70;1.00;;;;;;8381112;28;20195;-66
2023/05/12 11:43:55;;;;;;;2.13;1.37;;;22.60;1.00;;;;;;8384757;28;20188;-67
2023/05/12 11:48:08;;;;;;;4.00;2.00;;;22.60;1.00;;;;;;8375521;28;20223;-68
2023/05/12 11:52:09;;;;;;;3.10;1.40;;;22.60;1.00;;;;;;8379763;28;20193;-68
2023/05/12 11:56:18;;;;;;;2.00;1.50;;;22.80;1.00;;;;;;8397606;28;20189;-68
2023/05/12 12:00:33;;;;;;;3.07;1.50;;;23.00;1.00;;;;;;8399471;28;20231;-68
2023/05/12 12:04:35;;;;;;;5.00;1.37;;;23.00;1.00;;;;;;8385399;28;20212;-69
2023/05/12 12:08:39;;;;;;;4.57;1.20;;;22.90;1.00;;;;;;8396594;28;20208;-68
2023/05/12 12:12:41;;;;;;;2.70;1.40;;;22.90;1.00;;;;;;8384111;28;20188;-68
2023/05/12 12:16:42;;;;;;;1.60;1.23;;;23.10;1.00;;;;;;8381057;28;20181;-67
2023/05/12 12:20:43;;;;;;;3.47;1.60;;;23.30;1.00;;;;;;8384296;28;20196;-67
2023/05/12 12:24:47;;;;;;;1.80;1.50;;;23.60;1.00;;;;;;8399222;28;20247;-67
2023/05/12 12:28:48;;;;;;;2.50;1.50;;;23.60;1.00;;;;;;8394072;28;20205;-67
2023/05/12 12:32:50;;;;;;;2.53;1.63;;;23.60;1.00;;;;;;8395664;28;20180;-68
2023/05/12 12:36:51;;;;;;;3.67;1.50;;;23.50;1.00;;;;;;8385675;28;20180;-68
2023/05/12 12:40:52;;;;;;;3.23;1.33;;;23.10;1.00;;;;;;8386042;28;20203;-67
2023/05/12 12:44:55;;;;;;;2.57;1.53;;;22.80;1.00;;;;;;8383867;28;20215;-69
2023/05/12 12:48:57;;;;;;;1.73;1.30;;;22.60;1.00;;;;;;8381774;28;20216;-68
2023/05/12 12:53:01;;;;;;;3.70;1.60;;;22.70;1.00;;;;;;8384651;28;20268;-68
2023/05/12 12:57:03;;;;;;;3.87;1.50;;;23.30;1.00;;;;;;8395402;28;20200;-70
2023/05/12 13:01:07;;;;;;;8.00;1.70;;;23.60;1.00;;;;;;8378533;28;20185;-69
2023/05/12 13:05:08;;;;;;;3.37;1.80;;;23.70;1.00;;;;;;8397377;28;20209;-67
2023/05/12 13:09:09;;;;;;;4.13;1.63;;;23.40;1.00;;;;;;8383312;28;20216;-65
2023/05/12 13:13:11;;;;;;;1.97;1.70;;;23.20;1.00;;;;;;8394738;28;20234;-66
2023/05/12 13:17:12;;;;;;;3.57;1.90;;;23.20;1.00;;;;;;8380011;28;20235;-69
2023/05/12 13:21:13;;;;;;;4.17;2.03;;;23.40;1.00;;;;;;8383456;28;20191;-65
2023/05/12 13:25:14;;;;;;;2.53;1.60;;;23.50;1.00;;;;;;8378112;28;20218;-68
2023/05/12 13:29:15;;;;;;;2.27;1.30;;;23.50;1.00;;;;;;8383975;28;20263;-68
2023/05/12 13:33:22;;;;;;;4.00;1.60;;;23.60;1.00;;;;;;8396563;28;20239;-68
2023/05/12 13:37:23;;;;;;;5.90;1.60;;;23.60;1.00;;;;;;8381009;28;20184;-69
2023/05/12 13:41:24;;;;;;;2.03;1.70;;;23.60;1.00;;;;;;8402357;28;20209;-68
2023/05/12 13:45:26;;;;;;;1.67;1.57;;;23.80;1.00;;;;;;8403042;28;20384;-67
2023/05/12 13:49:27;;;;;;;3.80;2.10;;;24.00;1.00;;;;;;8381612;28;20227;-66
2023/05/12 13:53:28;;;;;;;2.60;1.87;;;24.10;1.00;;;;;;8384328;28;20219;-67
2023/05/12 13:57:41;;;;;;;2.63;2.00;;;24.00;1.00;;;;;;8401453;28;20193;-66
2023/05/12 14:01:45;;;;;;;3.33;1.73;;;23.80;1.00;;;;;;8384684;28;20192;-66
2023/05/12 14:05:46;;;;;;;2.63;1.70;;;23.80;1.00;;;;;;8382993;28;20201;-68
2023/05/12 14:09:47;;;;;;;4.03;2.30;;;23.70;1.00;;;;;;8390762;28;20240;-68
2023/05/12 14:13:48;;;;;;;4.50;2.00;;;23.80;1.00;;;;;;8383509;28;20185;-65
2023/05/12 14:17:49;;;;;;;2.20;1.77;;;23.90;1.00;;;;;;8390886;28;20191;-67
2023/05/12 14:21:50;;;;;;;3.03;2.30;;;24.00;1.00;;;;;;8400755;28;20199;-66
2023/05/12 14:25:53;;;;;;;3.10;1.83;;;24.00;1.00;;;;;;8400005;28;20227;-68
2023/05/12 14:29:54;;;;;;;4.97;1.83;;;24.10;1.00;;;;;;8378865;28;20208;-68
2023/05/12 14:33:55;;;;;;;3.70;2.33;;;24.00;1.00;;;;;;8382921;28;20188;-68
2023/05/12 14:37:56;;;;;;;4.97;2.40;;;23.70;1.00;;;;;;8382183;28;20188;-67
2023/05/12 14:41:58;;;;;;;2.77;1.90;;;23.60;1.00;;;;;;8403440;28;20218;-67
2023/05/12 14:46:00;;;;;;;4.77;2.33;;;23.40;1.00;;;;;;8381037;28;20211;-68
2023/05/12 14:50:01;;;;;;;3.53;2.10;;;23.30;1.00;;;;;;8399092;28;20209;-68
2023/05/12 14:54:02;;;;;;;4.80;1.80;;;23.30;1.00;;;;;;8390618;28;20203;-68
2023/05/12 14:58:03;;;;;;;2.87;1.60;;;23.40;1.00;;;;;;8390334;28;20185;-68
2023/05/12 15:02:05;;;;;;;3.33;1.80;;;23.70;1.00;;;;;;8379659;28;20184;-69
2023/05/12 15:06:06;;;;;;;9.27;2.30;;;24.20;1.00;;;;;;8383282;28;20243;-68
2023/05/12 15:10:07;;;;;;;6.53;1.77;;;24.30;1.00;;;;;;8379968;28;20351;-68
2023/05/12 15:14:08;;;;;;;3.87;1.57;;;24.10;1.00;;;;;;8386462;28;20204;-70
2023/05/12 15:18:09;;;;;;;2.73;1.47;;;23.70;1.00;;;;;;8379785;28;20196;-69
2023/05/12 15:22:10;;;;;;;3.30;1.80;;;23.60;1.00;;;;;;8379973;28;20199;-68
2023/05/12 15:26:11;;;;;;;3.77;1.80;;;23.30;1.00;;;;;;8376917;28;20204;-68
2023/05/12 15:30:13;;;;;;;3.07;1.80;;;23.20;1.00;;;;;;8381972;28;20273;-69
2023/05/12 15:34:22;;;;;;;3.40;2.00;;;22.90;1.00;;;;;;8396563;28;20182;-68
2023/05/12 15:38:23;;;;;;;4.83;2.43;;;22.90;1.00;;;;;;8382702;28;20204;-69
2023/05/12 15:42:24;;;;;;;4.50;1.77;;;22.80;1.00;;;;;;8388175;28;20193;-69
2023/05/12 15:46:25;;;;;;;2.57;1.43;;;22.80;1.00;;;;;;8398207;28;20192;-67
2023/05/12 15:50:26;;;;;;;4.73;1.77;;;22.70;1.00;;;;;;8382653;28;20218;-69
2023/05/12 15:54:30;;;;;;;2.87;1.80;;;22.40;1.00;;;;;;8382799;28;20201;-67
2023/05/12 15:58:31;;;;;;;4.33;1.57;;;22.40;1.00;;;;;;8398115;28;20221;-66
2023/05/12 16:02:32;;;;;;;1.83;1.70;;;22.40;1.00;;;;;;8377579;28;20205;-67
2023/05/12 16:06:34;;;;;;;3.10;2.03;;;22.40;1.00;;;;;;8378074;28;20236;-67
2023/05/12 16:10:35;;;;;;;3.30;2.10;;;22.40;1.00;;;;;;8396150;28;20236;-68
2023/05/12 16:14:35;;;;;;;3.93;1.70;;;22.50;1.00;;;;;;8398336;28;20189;-69
2023/05/12 16:18:37;;;;;;;4.03;1.70;;;22.50;1.00;;;;;;8397762;28;20238;-67
2023/05/12 16:22:39;;;;;;;2.83;1.50;;;22.50;1.00;;;;;;8369511;28;20263;-67
2023/05/12 16:26:42;;;;;;;3.00;1.70;;;22.20;1.00;;;;;;8377166;28;20311;-68
2023/05/12 16:30:44;;;;;;;2.53;1.80;;;21.90;1.00;;;;;;8381162;28;20217;-67
2023/05/12 16:34:45;;;;;;;3.80;1.70;;;21.60;1.00;;;;;;8379849;28;20276;-68
2023/05/12 16:38:46;;;;;;;1.80;1.50;;;21.30;1.00;;;;;;8377138;28;20197;-66
2023/05/12 16:42:47;;;;;;;4.13;1.90;;;21.20;1.00;;;;;;8396472;28;20203;-67
2023/05/12 16:46:52;;;;;;;2.97;1.60;;;21.20;1.00;;;;;;8382164;28;20184;-68
2023/05/12 16:51:20;;;;;;;2.10;1.40;;;21.20;1.00;;;;;;8383296;28;20219;-67
2023/05/12 16:55:24;;;;;;;5.40;1.70;;;21.20;1.00;;;;;;8376855;28;20207;-68
2023/05/12 16:59:25;;;;;;;2.90;1.50;;;21.20;1.00;;;;;;8394698;28;20189;-67
2023/05/12 17:03:26;;;;;;;3.63;2.00;;;21.00;1.00;;;;;;8378937;28;20283;-68
2023/05/12 17:07:28;;;;;;;3.53;1.93;;;20.80;1.00;;;;;;8386477;28;20224;-66
2023/05/12 17:11:28;;;;;;;6.67;1.90;;;20.70;1.00;;;;;;8377251;28;20199;-66
2023/05/12 17:15:30;;;;;;;3.23;1.80;;;20.70;1.00;;;;;;8389950;28;20217;-67
2023/05/12 17:19:34;;;;;;;2.63;1.80;;;20.60;1.00;;;;;;8401962;28;20200;-67
2023/05/12 17:23:34;;;;;;;2.93;1.87;;;20.60;1.00;;;;;;8400971;28;20193;-67
2023/05/12 17:27:35;;;;;;;4.30;1.93;;;20.80;1.00;;;;;;8403214;28;20252;-69
2023/05/12 17:31:37;;;;;;;2.70;1.63;;;21.50;1.00;;;;;;8385452;28;20217;-69
2023/05/12 17:35:38;;;;;;;3.13;2.00;;;21.70;1.00;;;;;;8387825;28;20199;-69
2023/05/12 17:39:40;;;;;;;4.63;1.80;;;21.50;1.00;;;;;;8382507;28;20198;-69
2023/05/12 17:43:41;;;;;;;2.57;1.70;;;21.80;1.00;;;;;;8384157;28;20223;-67
2023/05/12 17:47:43;;;;;;;3.17;1.90;;;22.10;1.00;;;;;;8383481;28;20212;-68
2023/05/12 17:51:44;;;;;;;3.77;2.60;;;22.30;1.00;;;;;;8402727;28;20209;-66
2023/05/12 17:55:51;;;;;;;4.07;2.87;;;22.50;1.00;;;;;;8382359;28;20185;-68
2023/05/12 17:59:52;;;;;;;9.77;4.53;;;22.30;1.00;;;;;;8392215;28;20214;-67
2023/05/12 18:03:53;;;;;;;7.13;4.30;;;21.40;1.00;;;;;;8386085;28;20212;-68
2023/05/12 18:07:58;;;;;;;10.30;6.80;;;20.60;1.00;;;;;;8380091;28;20217;-67
2023/05/12 18:11:59;;;;;;;11.53;5.90;;;20.10;1.00;;;;;;8385955;28;20192;-67
2023/05/12 18:16:00;;;;;;;14.33;7.63;;;19.70;1.00;;;;;;8384565;28;20185;-68
2023/05/12 18:20:05;;;;;;;7.37;3.53;;;19.40;1.00;;;;;;8400629;28;20218;-70
2023/05/12 18:24:06;;;;;;;7.03;3.27;;;19.20;1.00;;;;;;8382579;28;20266;-69
2023/05/12 18:28:07;;;;;;;4.77;2.70;;;19.20;1.00;;;;;;8389332;28;20262;-67
2023/05/12 18:32:08;;;;;;;8.43;2.03;;;19.00;1.00;;;;;;8389684;28;20185;-68
2023/05/12 18:36:09;;;;;;;2.97;2.10;;;18.80;1.00;;;;;;8400490;28;20250;-66
2023/05/12 18:40:11;;;;;;;6.27;4.83;;;18.60;1.00;;;;;;8383489;28;20216;-67
2023/05/12 18:44:12;;;;;;;16.87;13.00;;;18.50;1.00;;;;;;8398293;28;20200;-65
2023/05/12 18:48:13;;;;;;;8.43;5.30;;;18.30;1.00;;;;;;8400167;28;20217;-67
2023/05/12 18:52:14;;;;;;;3.47;2.30;;;18.20;1.00;;;;;;8402364;28;20193;-66
2023/05/12 18:56:15;;;;;;;4.43;2.73;;;18.10;1.00;;;;;;8388117;28;20210;-68
2023/05/12 19:00:16;;;;;;;13.20;11.43;;;17.90;1.00;;;;;;8382839;28;20192;-67
2023/05/12 19:04:18;;;;;;;7.40;4.43;;;17.90;1.00;;;;;;8396740;28;20209;-62
2023/05/12 19:08:19;;;;;;;8.87;5.80;;;17.80;1.00;;;;;;8398834;28;20350;-64
2023/05/12 19:12:20;;;;;;;10.10;8.00;;;17.60;1.00;;;;;;8386708;28;20199;-63
2023/05/12 19:16:24;;;;;;;5.77;4.13;;;17.40;1.00;;;;;;8383567;28;20195;-64
2023/05/12 19:20:26;;;;;;;7.53;5.20;;;17.20;1.00;;;;;;8400576;28;20184;-65
2023/05/12 19:24:28;;;;;;;9.17;4.93;;;17.00;1.00;;;;;;8386356;28;20192;-65
2023/05/12 19:28:29;;;;;;;10.03;5.10;;;16.80;1.00;;;;;;8398573;28;20291;-65
2023/05/12 19:32:33;;;;;;;6.27;4.00;;;16.60;1.00;;;;;;8401589;28;20200;-64
2023/05/12 19:36:34;;;;;;;11.37;4.67;;;16.50;1.00;;;;;;8377354;28;20185;-64
2023/05/12 19:40:35;;;;;;;11.43;3.60;;;16.30;1.00;;;;;;8384798;28;20192;-64
2023/05/12 19:44:36;;;;;;;10.77;4.37;;;16.20;1.00;;;;;;8380075;28;20252;-65
2023/05/12 19:48:37;;;;;;;8.67;5.03;;;16.00;1.00;;;;;;8386323;28;20216;-64
2023/05/12 19:52:38;;;;;;;12.23;5.73;;;15.90;1.00;;;;;;8397842;28;20468;-64
2023/05/12 19:56:39;;;;;;;14.10;6.97;;;15.70;1.00;;;;;;8401318;28;20188;-64
2023/05/12 20:00:40;;;;;;;8.70;4.07;;;15.60;1.00;;;;;;8396656;28;20188;-64
2023/05/12 20:04:41;;;;;;;8.13;4.23;;;15.50;1.00;;;;;;8398308;28;20208;-64
2023/05/12 20:08:42;;;;;;;3.27;2.37;;;15.40;1.00;;;;;;8379646;28;20216;-63
2023/05/12 20:12:43;;;;;;;3.93;2.77;;;15.30;1.00;;;;;;8396612;28;20189;-65
2023/05/12 20:16:44;;;;;;;9.43;3.10;;;15.10;1.00;;;;;;8384859;28;20242;-64
2023/05/12 20:20:45;;;;;;;6.77;2.70;;;15.00;1.00;;;;;;8375476;28;20259;-62
2023/05/12 20:24:46;;;;;;;9.07;3.07;;;14.90;1.00;;;;;;8386519;28;20208;-64
2023/05/12 20:28:49;;;;;;;4.83;3.13;;;14.80;1.00;;;;;;8386550;28;20262;-65
2023/05/12 20:32:50;;;;;;;5.77;3.23;;;14.70;1.00;;;;;;8383872;28;20185;-66
2023/05/12 20:36:52;;;;;;;5.37;3.30;;;14.60;1.00;;;;;;8397524;28;20192;-64
2023/05/12 20:40:53;;;;;;;6.90;3.10;;;14.60;1.00;;;;;;8380118;28;20184;-64
2023/05/12 20:44:54;;;;;;;4.77;2.30;;;14.60;1.00;;;;;;8387499;28;20235;-65
2023/05/12 20:48:56;;;;;;;5.63;2.20;;;14.50;1.00;;;;;;8385157;28;20223;-65
2023/05/12 20:53:00;;;;;;;4.97;2.60;;;14.50;1.00;;;;;;8390124;28;20275;-65
2023/05/12 20:57:01;;;;;;;5.33;2.73;;;14.40;1.00;;;;;;8388063;28;20240;-65
2023/05/12 21:01:06;;;;;;;7.23;3.50;;;14.40;1.00;;;;;;8386483;28;20195;-64
2023/05/12 21:05:07;;;;;;;4.13;3.00;;;14.40;1.00;;;;;;8394134;28;20211;-65
2023/05/12 21:09:11;;;;;;;4.00;3.30;;;14.40;1.00;;;;;;8387693;28;20208;-66
2023/05/12 21:13:12;;;;;;;5.43;3.17;;;14.40;1.00;;;;;;8400603;28;20250;-65
2023/05/12 21:17:14;;;;;;;6.67;3.47;;;14.40;1.00;;;;;;8404248;28;20188;-68